createdAt,value
2022-08-03T00:00:12.333Z,1.52
2022-08-03T00:02:41.446Z,2.10
2022-08-03T00:05:11.252Z,1.87
2022-08-03T00:07:41.187Z,2.07
2022-08-03T00:10:13.714Z,2.15
2022-08-03T00:12:43.488Z,1.70
2022-08-03T00:15:16.474Z,2.12
2022-08-03T00:17:53.522Z,2.35
2022-08-03T00:20:17.185Z,1.92
2022-08-03T00:22:47.258Z,2.30
2022-08-03T00:25:16.772Z,2.30
2022-08-03T00:27:47.749Z,2.37
2022-08-03T00:30:18.091Z,2.27
2022-08-03T00:32:47.841Z,2.03
2022-08-03T00:35:36.699Z,2.42
2022-08-03T00:37:49.690Z,2.57
2022-08-03T00:40:20.703Z,2.92
2022-08-03T00:42:56.090Z,2.30
2022-08-03T00:45:28.293Z,2.23
2022-08-03T00:47:58.897Z,2.63
2022-08-03T00:50:31.005Z,2.55
2022-08-03T00:53:01.615Z,2.67
2022-08-03T00:55:31.552Z,2.40
2022-08-03T00:58:04.902Z,2.50
2022-08-03T01:00:38.754Z,2.60
2022-08-03T01:03:10.672Z,2.70
2022-08-03T01:05:55.290Z,2.80
2022-08-03T01:08:30.801Z,2.87
2022-08-03T01:11:18.220Z,2.37
2022-08-03T01:14:18.650Z,2.73
2022-08-03T01:16:55.633Z,3.22
2022-08-03T01:19:49.160Z,2.80
2022-08-03T01:22:30.359Z,3.47
2022-08-03T01:25:08.740Z,3.40
2022-08-03T01:27:53.725Z,3.92
2022-08-03T01:30:26.419Z,3.17
2022-08-03T01:33:03.694Z,3.27
2022-08-03T01:35:42.333Z,3.70
2022-08-03T01:38:15.165Z,3.77
2022-08-03T01:40:47.175Z,3.20
2022-08-03T01:43:58.919Z,3.33
2022-08-03T01:45:55.100Z,2.93
2022-08-03T01:48:25.697Z,3.42
2022-08-03T01:50:58.516Z,3.97
2022-08-03T01:53:30.432Z,3.57
2022-08-03T01:56:00.936Z,3.70
2022-08-03T01:58:32.362Z,3.45
2022-08-03T02:01:03.707Z,3.90
2022-08-03T02:03:36.551Z,3.50
2022-08-03T02:07:02.356Z,3.57
2022-08-03T02:08:44.102Z,3.83
2022-08-03T02:11:14.417Z,4.53
2022-08-03T02:13:46.627Z,3.40
2022-08-03T02:16:17.905Z,4.07
2022-08-03T02:18:49.407Z,3.53
2022-08-03T02:21:21.045Z,3.70
2022-08-03T02:23:52.519Z,3.40
2022-08-03T02:26:25.139Z,4.12
2022-08-03T02:28:57.602Z,3.77
2022-08-03T02:31:32.449Z,4.10
2022-08-03T02:34:05.414Z,4.13
2022-08-03T02:36:39.265Z,5.30
2022-08-03T02:39:11.933Z,4.10
2022-08-03T02:41:53.077Z,4.70
2022-08-03T02:44:27.227Z,4.40
2022-08-03T02:47:01.052Z,4.20
2022-08-03T02:49:40.953Z,4.60
2022-08-03T02:52:13.096Z,4.70
2022-08-03T02:54:42.225Z,4.80
2022-08-03T02:57:14.529Z,4.30
2022-08-03T02:59:45.548Z,4.73
2022-08-03T03:02:17.234Z,4.50
2022-08-03T03:04:58.869Z,5.40
2022-08-03T03:07:20.877Z,5.20
2022-08-03T03:09:52.173Z,4.60
2022-08-03T03:12:23.286Z,4.75
2022-08-03T03:14:53.076Z,5.03
2022-08-03T03:17:23.689Z,5.13
2022-08-03T03:19:54.696Z,5.30
2022-08-03T03:22:25.313Z,6.12
2022-08-03T03:24:56.523Z,5.07
2022-08-03T03:27:28.115Z,4.87
2022-08-03T03:29:59.900Z,4.57
2022-08-03T03:32:30.447Z,4.90
2022-08-03T03:35:00.868Z,4.90
2022-08-03T03:37:30.458Z,4.75
2022-08-03T03:40:00.321Z,4.77
2022-08-03T03:42:30.819Z,5.33
2022-08-03T03:45:02.337Z,5.13
2022-08-03T03:47:33.098Z,5.28
2022-08-03T03:50:07.259Z,5.37
2022-08-03T03:52:37.511Z,5.10
2022-08-03T03:55:08.365Z,5.15
2022-08-03T03:57:38.146Z,5.47
2022-08-03T04:00:10.159Z,4.77
2022-08-03T04:02:40.695Z,5.00
2022-08-03T04:05:28.223Z,5.27
2022-08-03T04:08:24.678Z,5.63
2022-08-03T04:11:29.215Z,5.13
2022-08-03T04:14:01.895Z,4.80
2022-08-03T04:16:34.380Z,4.80
2022-08-03T04:19:07.510Z,5.37
2022-08-03T04:21:40.313Z,5.23
2022-08-03T04:24:12.514Z,5.00
2022-08-03T04:26:44.121Z,5.00
2022-08-03T04:29:15.340Z,5.53
2022-08-03T04:31:46.953Z,5.40
2022-08-03T04:34:17.265Z,4.72
2022-08-03T04:36:50.222Z,5.80
2022-08-03T04:39:23.265Z,4.87
2022-08-03T04:42:07.666Z,6.00
2022-08-03T04:44:29.250Z,5.20
2022-08-03T04:47:00.540Z,5.30
2022-08-03T04:49:31.405Z,6.07
2022-08-03T04:52:01.929Z,5.20
2022-08-03T04:54:32.250Z,5.53
2022-08-03T04:57:02.018Z,5.47
2022-08-03T04:59:31.798Z,6.17
2022-08-03T05:02:01.721Z,4.53
2022-08-03T05:04:31.690Z,5.10
2022-08-03T05:07:11.736Z,5.63
2022-08-03T05:09:50.170Z,5.23
2022-08-03T05:12:07.311Z,5.27
2022-08-03T05:14:38.697Z,5.60
2022-08-03T05:17:09.412Z,5.77
2022-08-03T05:19:39.194Z,5.10
2022-08-03T05:22:10.489Z,4.97
2022-08-03T05:24:40.269Z,5.47
2022-08-03T05:27:10.710Z,5.33
2022-08-03T05:29:41.345Z,6.03
2022-08-03T05:32:12.647Z,6.22
2022-08-03T05:34:42.432Z,6.13
2022-08-03T05:37:12.768Z,6.70
2022-08-03T05:39:42.540Z,5.97
2022-08-03T05:42:12.372Z,6.37
2022-08-03T05:44:42.152Z,5.50
2022-08-03T05:47:11.917Z,5.77
2022-08-03T05:49:41.510Z,6.20
2022-08-03T05:52:14.658Z,5.90
2022-08-03T05:54:56.678Z,5.37
2022-08-03T05:57:14.875Z,4.97
2022-08-03T05:59:53.922Z,5.57
2022-08-03T06:02:16.415Z,5.20
2022-08-03T06:04:46.915Z,5.40
2022-08-03T06:07:16.694Z,4.93
2022-08-03T06:10:36.157Z,3.67
2022-08-03T06:12:18.337Z,4.50
2022-08-03T06:14:48.335Z,3.87
2022-08-03T06:17:18.102Z,3.93
2022-08-03T06:19:47.888Z,4.03
2022-08-03T06:22:17.825Z,3.98
2022-08-03T06:24:53.527Z,4.67
2022-08-03T06:27:20.405Z,4.15
2022-08-03T06:29:51.874Z,4.17
2022-08-03T06:32:22.721Z,3.47
2022-08-03T06:34:52.496Z,3.20
2022-08-03T06:37:23.138Z,3.60
2022-08-03T06:39:53.377Z,3.95
2022-08-03T06:42:23.219Z,3.27
2022-08-03T06:44:54.999Z,3.20
2022-08-03T06:47:24.781Z,2.77
2022-08-03T06:50:16.151Z,3.00
2022-08-03T06:52:37.260Z,3.23
2022-08-03T06:54:57.209Z,2.60
2022-08-03T06:57:27.183Z,3.00
2022-08-03T07:00:09.050Z,2.90
2022-08-03T07:02:30.367Z,2.83
2022-08-03T07:05:00.428Z,2.53
2022-08-03T07:07:30.271Z,3.47
2022-08-03T07:10:00.136Z,2.77
2022-08-03T07:12:32.641Z,2.27
2022-08-03T07:15:04.062Z,2.80
2022-08-03T07:17:35.475Z,2.97
2022-08-03T07:20:09.206Z,3.10
2022-08-03T07:22:38.950Z,2.77
2022-08-03T07:25:09.377Z,2.33
2022-08-03T07:27:39.373Z,2.63
2022-08-03T07:30:11.838Z,2.50
2022-08-03T07:32:49.864Z,2.60
2022-08-03T07:35:24.226Z,2.67
2022-08-03T07:37:54.124Z,2.60
2022-08-03T07:40:17.673Z,2.43
2022-08-03T07:42:47.445Z,2.27
2022-08-03T07:45:18.997Z,2.87
2022-08-03T07:47:53.486Z,2.43
2022-08-03T07:50:19.985Z,2.43
2022-08-03T07:52:51.614Z,2.40
2022-08-03T07:55:23.382Z,2.13
2022-08-03T07:58:12.183Z,2.30
2022-08-03T08:00:42.331Z,2.07
2022-08-03T08:03:13.136Z,2.80
2022-08-03T08:05:42.969Z,2.90
2022-08-03T08:08:13.742Z,2.72
2022-08-03T08:10:57.886Z,2.40
2022-08-03T08:13:14.989Z,2.93
2022-08-03T08:15:44.762Z,2.43
2022-08-03T08:18:16.140Z,2.27
2022-08-03T08:20:45.914Z,2.23
2022-08-03T08:23:42.931Z,2.50
2022-08-03T08:25:47.163Z,2.27
2022-08-03T08:28:32.936Z,2.60
2022-08-03T08:30:53.586Z,3.10
2022-08-03T08:33:24.132Z,2.43
2022-08-03T08:35:55.023Z,2.90
2022-08-03T08:38:25.065Z,2.80
2022-08-03T08:40:57.123Z,2.53
2022-08-03T08:43:26.896Z,2.67
2022-08-03T08:45:59.710Z,2.30
2022-08-03T08:48:31.893Z,2.87
2022-08-03T08:51:02.490Z,2.93
2022-08-03T08:53:35.217Z,2.00
2022-08-03T08:56:08.606Z,2.43
2022-08-03T08:58:44.102Z,2.17
2022-08-03T09:01:13.766Z,2.27
2022-08-03T09:03:43.640Z,2.43
2022-08-03T09:06:13.422Z,2.58
2022-08-03T09:08:43.331Z,2.70
2022-08-03T09:11:13.186Z,3.03
2022-08-03T09:13:43.618Z,2.37
2022-08-03T09:16:18.626Z,1.93
2022-08-03T09:18:51.026Z,2.83
2022-08-03T09:21:34.196Z,2.65
2022-08-03T09:24:02.724Z,2.37
2022-08-03T09:26:31.664Z,2.70
2022-08-03T09:29:13.153Z,2.40
2022-08-03T09:31:43.869Z,2.73
2022-08-03T09:34:16.651Z,3.00
2022-08-03T09:36:52.229Z,2.17
2022-08-03T09:39:28.630Z,2.07
2022-08-03T09:42:10.224Z,2.70
2022-08-03T09:44:42.605Z,2.67
2022-08-03T09:47:14.440Z,2.50
2022-08-03T09:49:46.272Z,2.53
2022-08-03T09:52:39.438Z,2.40
2022-08-03T09:54:53.676Z,2.55
2022-08-03T09:57:25.291Z,2.57
2022-08-03T10:00:04.449Z,2.40
2022-08-03T10:02:29.688Z,2.73
2022-08-03T10:04:59.455Z,2.43
2022-08-03T10:07:29.309Z,3.13
2022-08-03T10:10:30.090Z,2.37
2022-08-03T10:12:32.755Z,2.60
2022-08-03T10:15:03.302Z,2.87
2022-08-03T10:17:36.198Z,2.70
2022-08-03T10:20:07.575Z,3.07
2022-08-03T10:22:39.727Z,2.43
2022-08-03T10:25:12.519Z,2.40
2022-08-03T10:27:45.645Z,2.77
2022-08-03T10:30:15.741Z,3.43
2022-08-03T10:32:50.978Z,2.80
2022-08-03T10:35:23.376Z,3.25
2022-08-03T10:38:05.307Z,2.50
2022-08-03T10:40:55.819Z,2.70
2022-08-03T10:43:16.312Z,2.87
2022-08-03T10:45:48.032Z,2.43
2022-08-03T10:48:19.466Z,2.70
2022-08-03T10:50:51.488Z,2.47
2022-08-03T10:53:35.916Z,2.63
2022-08-03T10:56:44.372Z,2.05
2022-08-03T10:58:58.301Z,2.33
2022-08-03T11:01:58.645Z,2.65
2022-08-03T11:04:25.033Z,2.87
2022-08-03T11:07:18.615Z,2.60
2022-08-03T11:09:54.098Z,3.33
2022-08-03T11:15:09.305Z,2.77
2022-08-03T11:17:46.349Z,2.95
2022-08-03T11:20:12.916Z,2.30
2022-08-03T11:22:54.337Z,2.53
2022-08-03T11:25:54.840Z,3.15
2022-08-03T11:28:14.382Z,2.80
2022-08-03T11:30:44.438Z,2.33
2022-08-03T11:33:17.259Z,3.20
2022-08-03T11:36:02.480Z,2.90
2022-08-03T11:38:32.288Z,2.37
2022-08-03T11:41:02.534Z,3.03
2022-08-03T11:43:36.730Z,2.27
2022-08-03T11:46:11.436Z,2.80
2022-08-03T11:48:43.560Z,2.70
2022-08-03T11:51:27.847Z,2.42
2022-08-03T11:53:59.629Z,2.53
2022-08-03T11:56:31.792Z,2.70
2022-08-03T11:59:20.314Z,1.93
2022-08-03T12:01:33.039Z,2.03
2022-08-03T12:04:07.264Z,2.45
2022-08-03T12:06:38.861Z,2.40
2022-08-03T12:09:21.310Z,2.00
2022-08-03T12:11:59.754Z,2.27
2022-08-03T12:14:49.277Z,2.25
2022-08-03T12:16:54.700Z,2.80
2022-08-03T12:19:24.481Z,1.90
2022-08-03T12:21:56.756Z,1.97
2022-08-03T12:24:27.438Z,2.23
2022-08-03T12:27:00.073Z,2.13
2022-08-03T12:29:30.041Z,1.37
2022-08-03T12:31:59.524Z,1.47
2022-08-03T12:34:49.680Z,1.83
2022-08-03T12:37:23.869Z,1.60
2022-08-03T12:40:05.201Z,1.50
2022-08-03T12:42:34.736Z,1.42
2022-08-03T12:45:27.819Z,1.00
2022-08-03T12:48:00.035Z,1.73
2022-08-03T12:50:32.050Z,1.37
2022-08-03T12:53:04.538Z,1.10
2022-08-03T12:55:57.855Z,1.20
2022-08-03T12:58:13.666Z,1.10
2022-08-03T13:00:42.184Z,1.50
2022-08-03T13:03:39.311Z,1.40
2022-08-03T13:05:47.088Z,1.30
2022-08-03T13:08:25.378Z,1.57
2022-08-03T13:10:55.198Z,1.27
2022-08-03T13:13:41.187Z,1.40
2022-08-03T13:16:15.786Z,1.62
2022-08-03T13:18:42.982Z,1.33
2022-08-03T13:21:17.893Z,1.40
2022-08-03T13:23:47.953Z,1.00
2022-08-03T13:26:17.726Z,1.25
2022-08-03T13:28:47.487Z,1.53
2022-08-03T13:31:17.259Z,0.90
2022-08-03T13:33:47.024Z,1.33
2022-08-03T13:36:17.362Z,1.30
2022-08-03T13:38:47.135Z,1.67
2022-08-03T13:41:16.975Z,1.20
2022-08-03T13:43:47.225Z,1.50
2022-08-03T13:46:17.577Z,1.30
2022-08-03T13:48:47.344Z,1.73
2022-08-03T13:51:22.608Z,1.40
2022-08-03T13:53:48.295Z,1.30
2022-08-03T13:56:18.116Z,1.40
2022-08-03T13:58:47.890Z,1.33
2022-08-03T14:01:29.653Z,1.47
2022-08-03T14:03:51.402Z,1.63
2022-08-03T14:06:23.618Z,1.25
2022-08-03T14:08:56.785Z,1.20
2022-08-03T14:11:25.774Z,1.37
2022-08-03T14:13:57.300Z,1.27
2022-08-03T14:16:27.010Z,1.20
2022-08-03T14:18:56.780Z,1.10
2022-08-03T14:21:27.743Z,1.40
2022-08-03T14:23:57.503Z,1.40
2022-08-03T14:26:27.661Z,1.05
2022-08-03T14:28:57.428Z,1.53
2022-08-03T14:32:11.877Z,1.52
2022-08-03T14:33:58.807Z,1.37
2022-08-03T14:36:28.641Z,1.27
2022-08-03T14:39:01.332Z,1.80
2022-08-03T14:41:29.937Z,1.50
2022-08-03T14:44:02.070Z,2.20
2022-08-03T14:46:32.079Z,1.63
2022-08-03T14:50:34.339Z,1.50
2022-08-03T14:51:33.310Z,1.60
2022-08-03T14:54:03.371Z,1.57
2022-08-03T14:56:33.154Z,1.60
2022-08-03T14:59:02.919Z,1.47
2022-08-03T15:02:04.776Z,1.17
2022-08-03T15:04:05.027Z,1.27
2022-08-03T15:06:35.133Z,1.62
2022-08-03T15:11:36.973Z,1.20
2022-08-03T15:14:09.522Z,1.72
2022-08-03T15:16:39.836Z,1.30
2022-08-03T15:20:05.564Z,1.10
2022-08-03T15:21:47.342Z,1.67
2022-08-03T15:24:12.251Z,1.40
2022-08-03T15:26:42.112Z,1.40
2022-08-03T15:30:05.159Z,1.47
2022-08-03T15:31:44.979Z,1.30
2022-08-03T15:34:14.761Z,1.30
2022-08-03T15:36:44.812Z,1.30
2022-08-03T15:39:14.921Z,1.40
2022-08-03T15:41:45.043Z,1.37
2022-08-03T15:44:14.496Z,1.40
2022-08-03T15:46:44.276Z,1.73
2022-08-03T15:49:14.206Z,1.50
2022-08-03T15:51:43.983Z,1.50
2022-08-03T15:54:13.523Z,1.40
2022-08-03T15:56:44.940Z,1.53
2022-08-03T15:59:14.407Z,1.40
2022-08-03T16:01:44.386Z,1.40
2022-08-03T16:04:14.138Z,1.77
2022-08-03T16:06:43.905Z,1.33
2022-08-03T16:09:24.358Z,1.40
2022-08-03T16:11:45.144Z,1.20
2022-08-03T16:14:32.664Z,1.20
2022-08-03T16:16:46.607Z,1.20
2022-08-03T16:19:16.639Z,1.90
2022-08-03T16:21:48.184Z,1.73
2022-08-03T16:24:25.869Z,2.00
2022-08-03T16:26:49.454Z,1.50
2022-08-03T16:29:23.140Z,1.50
2022-08-03T16:31:51.349Z,1.60
2022-08-03T16:34:21.395Z,1.50
2022-08-03T16:36:51.174Z,1.27
2022-08-03T16:39:21.007Z,1.67
2022-08-03T16:41:54.029Z,1.40
2022-08-03T16:44:22.408Z,1.40
2022-08-03T16:46:52.251Z,1.30
2022-08-03T16:49:54.876Z,1.35
2022-08-03T16:51:53.364Z,1.30
2022-08-03T16:54:23.895Z,1.20
2022-08-03T16:56:55.439Z,1.30
2022-08-03T16:59:36.377Z,1.10
2022-08-03T17:01:58.096Z,1.30
2022-08-03T17:04:29.340Z,1.57
2022-08-03T17:07:00.089Z,1.30
2022-08-03T17:09:38.252Z,1.00
2022-08-03T17:12:03.123Z,0.90
2022-08-03T17:14:33.158Z,1.77
2022-08-03T17:17:05.955Z,1.93
2022-08-03T17:19:39.944Z,1.47
2022-08-03T17:22:17.758Z,1.43
2022-08-03T17:24:50.104Z,1.50
2022-08-03T17:28:50.746Z,1.40
2022-08-03T17:29:57.196Z,1.60
2022-08-03T17:32:30.142Z,1.50
2022-08-03T17:35:00.276Z,1.43
2022-08-03T17:37:57.440Z,1.83
2022-08-03T17:40:03.759Z,1.57
2022-08-03T17:42:35.183Z,1.20
2022-08-03T17:45:08.358Z,1.40
2022-08-03T17:47:42.087Z,1.50
2022-08-03T17:50:24.322Z,1.45
2022-08-03T17:52:48.620Z,0.90
2022-08-03T17:55:56.440Z,1.77
2022-08-03T17:58:03.413Z,1.23
2022-08-03T18:00:53.186Z,1.23
2022-08-03T18:03:56.989Z,1.33
2022-08-03T18:06:12.945Z,1.77
2022-08-03T18:08:48.249Z,1.83
2022-08-03T18:11:21.920Z,1.23
2022-08-03T18:14:16.297Z,1.35
2022-08-03T18:16:51.900Z,1.73
2022-08-03T18:20:01.767Z,1.50
2022-08-03T18:22:03.548Z,1.57
2022-08-03T18:24:30.435Z,1.83
2022-08-03T18:27:04.237Z,1.50
2022-08-03T18:32:13.667Z,1.70
2022-08-03T18:37:23.010Z,1.27
2022-08-03T18:39:52.716Z,1.20
2022-08-03T18:42:26.470Z,1.77
2022-08-03T18:44:56.343Z,1.37
2022-08-03T18:47:52.488Z,1.57
2022-08-03T18:50:30.749Z,1.70
2022-08-03T18:53:19.726Z,1.37
2022-08-03T18:56:02.670Z,1.40
2022-08-03T18:58:38.794Z,1.37
2022-08-03T19:02:00.639Z,1.52
2022-08-03T19:03:54.114Z,1.90
2022-08-03T19:06:26.442Z,1.73
2022-08-03T19:08:58.679Z,1.50
2022-08-03T19:12:13.304Z,1.70
2022-08-03T19:14:05.639Z,2.00
2022-08-03T19:16:39.533Z,1.43
2022-08-03T19:19:14.483Z,1.40
2022-08-03T19:21:46.004Z,1.53
2022-08-03T19:24:21.678Z,1.73
2022-08-03T19:29:57.904Z,1.67
2022-08-03T19:31:59.978Z,1.53
2022-08-03T19:34:32.632Z,1.75
2022-08-03T19:37:03.336Z,1.80
2022-08-03T19:39:33.705Z,1.93
2022-08-03T19:42:12.169Z,1.70
2022-08-03T19:44:44.962Z,1.60
2022-08-03T19:47:30.005Z,1.95
2022-08-03T19:50:06.001Z,2.00
2022-08-03T19:52:35.651Z,1.63
2022-08-03T19:55:12.098Z,1.77
2022-08-03T19:57:45.866Z,2.10
2022-08-03T20:00:17.617Z,2.13
2022-08-03T20:02:50.856Z,2.30
2022-08-03T20:05:20.741Z,2.45
2022-08-03T20:07:53.497Z,2.20
2022-08-03T20:10:23.215Z,2.60
2022-08-03T20:12:54.637Z,2.60
2022-08-03T20:15:31.340Z,2.30
2022-08-03T20:17:58.616Z,2.20
2022-08-03T20:20:36.409Z,2.20
2022-08-03T20:23:10.029Z,2.10
2022-08-03T20:25:57.016Z,2.35
2022-08-03T20:28:17.326Z,2.47
2022-08-03T20:30:47.721Z,1.70
2022-08-03T20:33:18.787Z,2.10
2022-08-03T20:35:50.541Z,1.83
2022-08-03T20:38:20.437Z,1.97
2022-08-03T20:40:51.916Z,2.00
2022-08-03T20:43:23.326Z,1.77
2022-08-03T20:45:58.975Z,2.00
2022-08-03T20:48:26.272Z,1.97
2022-08-03T20:50:56.463Z,2.33
2022-08-03T20:53:59.796Z,2.33
2022-08-03T20:56:02.347Z,1.87
2022-08-03T20:58:33.504Z,2.40
2022-08-03T21:01:03.840Z,2.17
2022-08-03T21:03:40.896Z,2.07
2022-08-03T21:06:08.784Z,2.02
2022-08-03T21:08:46.906Z,2.30
2022-08-03T21:11:15.283Z,2.40
2022-08-03T21:12:58.523Z,1.80
2022-08-03T21:13:53.915Z,2.17
2022-08-03T21:16:26.959Z,2.10
2022-08-03T21:18:59.535Z,1.87
2022-08-03T21:21:32.411Z,2.20
2022-08-03T21:24:04.598Z,2.20
2022-08-03T21:26:37.213Z,3.00
2022-08-03T21:29:08.485Z,1.97
2022-08-03T21:31:40.058Z,2.60
2022-08-03T21:34:11.662Z,2.45
2022-08-03T21:36:41.511Z,1.97
2022-08-03T21:39:12.470Z,2.30
2022-08-03T21:41:42.600Z,2.22
2022-08-03T21:44:13.474Z,1.80
2022-08-03T21:46:44.881Z,2.00
2022-08-03T21:50:05.892Z,2.12
2022-08-03T21:51:48.475Z,2.07
2022-08-03T21:54:20.124Z,2.60
2022-08-03T21:56:51.906Z,1.90
2022-08-03T21:59:23.922Z,2.60
2022-08-03T22:01:55.167Z,1.80
2022-08-03T22:04:50.085Z,1.85
2022-08-03T22:06:59.324Z,2.00
2022-08-03T22:09:29.462Z,1.90
2022-08-03T22:11:59.234Z,2.10
2022-08-03T22:14:29.042Z,2.37
2022-08-03T22:16:58.883Z,1.80
2022-08-03T22:19:28.713Z,2.20
2022-08-03T22:21:59.933Z,2.50
2022-08-03T22:24:32.606Z,2.00
2022-08-03T22:27:21.409Z,2.40
2022-08-03T22:29:52.227Z,2.37
2022-08-03T22:32:22.566Z,2.07
2022-08-03T22:34:53.751Z,2.23
2022-08-03T22:37:26.635Z,2.63
2022-08-03T22:39:58.365Z,2.40
2022-08-03T22:42:28.284Z,2.30
2022-08-03T22:44:58.052Z,2.50
2022-08-03T22:47:28.461Z,2.20
2022-08-03T22:50:31.672Z,2.57
2022-08-03T22:52:31.366Z,2.65
2022-08-03T22:55:03.341Z,2.37
2022-08-03T22:57:34.709Z,3.10
2022-08-03T23:00:09.150Z,2.40
2022-08-03T23:02:40.894Z,2.45
2022-08-03T23:06:00.650Z,2.30
2022-08-03T23:07:51.490Z,2.30
2022-08-03T23:10:21.385Z,2.50
2022-08-03T23:12:51.591Z,2.43
2022-08-03T23:15:26.145Z,2.50
2022-08-03T23:17:58.598Z,2.30
2022-08-03T23:20:29.456Z,2.33
2022-08-03T23:23:00.636Z,2.53
2022-08-03T23:25:30.555Z,2.60
2022-08-03T23:28:05.512Z,2.03
2022-08-03T23:30:36.437Z,2.30
2022-08-03T23:33:09.570Z,2.65
2022-08-03T23:36:22.581Z,3.00
2022-08-03T23:38:31.312Z,2.22
2022-08-03T23:41:03.396Z,2.40
2022-08-03T23:43:46.989Z,2.37
2022-08-03T23:46:10.388Z,2.70
2022-08-03T23:48:40.150Z,2.27
2022-08-03T23:51:31.939Z,2.30
2022-08-03T23:54:22.632Z,2.30
2022-08-03T23:57:10.178Z,2.65
2022-08-03T23:59:42.986Z,2.57
